sensor_id;sensor_type;location;lat;lon;timestamp;pressure;altitude;pressure_sealevel;temperature;humidity
29815;BME280;16708;50.426;7.664;2023-10-13T00:03:07;986.52;;;15.87;100.00
29815;BME280;16708;50.426;7.664;2023-10-13T00:08:02;986.55;;;15.90;100.00
29815;BME280;16708;50.426;7.664;2023-10-13T00:12:56;986.61;;;15.93;100.00
29815;BME280;16708;50.426;7.664;2023-10-13T00:17:50;986.55;;;16.00;100.00
29815;BME280;16708;50.426;7.664;2023-10-13T00:22:43;986.46;;;15.99;100.00
29815;BME280;16708;50.426;7.664;2023-10-13T00:27:38;986.42;;;16.06;100.00
29815;BME280;16708;50.426;7.664;2023-10-13T00:32:32;986.37;;;16.16;100.00
29815;BME280;16708;50.426;7.664;2023-10-13T00:37:27;986.33;;;16.14;100.00
29815;BME280;16708;50.426;7.664;2023-10-13T00:42:22;986.32;;;16.21;100.00
29815;BME280;16708;50.426;7.664;2023-10-13T00:47:15;986.18;;;16.24;100.00
29815;BME280;16708;50.426;7.664;2023-10-13T00:52:09;986.19;;;16.23;100.00
29815;BME280;16708;50.426;7.664;2023-10-13T00:57:04;986.14;;;16.29;100.00
29815;BME280;16708;50.426;7.664;2023-10-13T01:01:58;986.21;;;16.27;100.00
29815;BME280;16708;50.426;7.664;2023-10-13T01:06:52;986.22;;;16.33;100.00
29815;BME280;16708;50.426;7.664;2023-10-13T01:11:46;986.18;;;16.35;100.00
29815;BME280;16708;50.426;7.664;2023-10-13T01:16:41;986.06;;;16.34;100.00
29815;BME280;16708;50.426;7.664;2023-10-13T01:21:34;985.98;;;16.40;100.00
29815;BME280;16708;50.426;7.664;2023-10-13T01:26:29;985.88;;;16.49;100.00
29815;BME280;16708;50.426;7.664;2023-10-13T01:31:22;985.91;;;16.51;100.00
29815;BME280;16708;50.426;7.664;2023-10-13T01:36:17;985.87;;;16.48;100.00
29815;BME280;16708;50.426;7.664;2023-10-13T01:41:11;985.81;;;16.48;100.00
29815;BME280;16708;50.426;7.664;2023-10-13T01:46:06;985.79;;;16.45;100.00
29815;BME280;16708;50.426;7.664;2023-10-13T01:51:00;985.71;;;16.46;100.00
29815;BME280;16708;50.426;7.664;2023-10-13T01:55:55;985.59;;;16.49;100.00
29815;BME280;16708;50.426;7.664;2023-10-13T02:00:49;985.53;;;16.48;100.00
29815;BME280;16708;50.426;7.664;2023-10-13T02:05:44;985.40;;;16.45;100.00
29815;BME280;16708;50.426;7.664;2023-10-13T02:10:38;985.29;;;16.50;100.00
29815;BME280;16708;50.426;7.664;2023-10-13T02:15:33;985.34;;;16.56;100.00
29815;BME280;16708;50.426;7.664;2023-10-13T02:20:27;985.27;;;16.60;100.00
29815;BME280;16708;50.426;7.664;2023-10-13T02:25:21;985.37;;;16.55;100.00
29815;BME280;16708;50.426;7.664;2023-10-13T02:30:16;985.16;;;16.53;100.00
29815;BME280;16708;50.426;7.664;2023-10-13T02:35:10;985.09;;;16.49;100.00
29815;BME280;16708;50.426;7.664;2023-10-13T02:40:05;985.01;;;16.52;100.00
29815;BME280;16708;50.426;7.664;2023-10-13T02:44:59;984.96;;;16.55;100.00
29815;BME280;16708;50.426;7.664;2023-10-13T02:49:54;984.94;;;16.60;100.00
29815;BME280;16708;50.426;7.664;2023-10-13T02:54:47;984.91;;;16.67;100.00
29815;BME280;16708;50.426;7.664;2023-10-13T02:59:42;984.82;;;16.71;100.00
29815;BME280;16708;50.426;7.664;2023-10-13T03:04:35;984.78;;;16.69;100.00
29815;BME280;16708;50.426;7.664;2023-10-13T03:14:24;984.83;;;16.86;100.00
29815;BME280;16708;50.426;7.664;2023-10-13T03:19:18;984.70;;;16.81;100.00
29815;BME280;16708;50.426;7.664;2023-10-13T03:24:12;984.68;;;16.84;100.00
29815;BME280;16708;50.426;7.664;2023-10-13T03:29:07;984.69;;;16.90;100.00
29815;BME280;16708;50.426;7.664;2023-10-13T03:34:01;984.58;;;16.88;100.00
29815;BME280;16708;50.426;7.664;2023-10-13T03:38:56;984.55;;;16.90;100.00
29815;BME280;16708;50.426;7.664;2023-10-13T03:43:50;984.52;;;16.94;100.00
29815;BME280;16708;50.426;7.664;2023-10-13T03:48:45;984.43;;;16.91;100.00
29815;BME280;16708;50.426;7.664;2023-10-13T03:53:37;984.42;;;16.90;100.00
29815;BME280;16708;50.426;7.664;2023-10-13T03:58:30;984.37;;;16.89;100.00
29815;BME280;16708;50.426;7.664;2023-10-13T04:03:24;984.32;;;16.92;100.00
29815;BME280;16708;50.426;7.664;2023-10-13T04:08:18;984.17;;;16.94;100.00
29815;BME280;16708;50.426;7.664;2023-10-13T04:13:12;984.16;;;17.08;100.00
29815;BME280;16708;50.426;7.664;2023-10-13T04:18:07;984.12;;;17.10;100.00
29815;BME280;16708;50.426;7.664;2023-10-13T04:23:01;983.95;;;17.05;100.00
29815;BME280;16708;50.426;7.664;2023-10-13T04:27:55;983.88;;;17.04;100.00
29815;BME280;16708;50.426;7.664;2023-10-13T04:32:50;983.87;;;17.05;100.00
29815;BME280;16708;50.426;7.664;2023-10-13T04:37:45;983.72;;;17.01;100.00
29815;BME280;16708;50.426;7.664;2023-10-13T04:42:40;983.75;;;17.02;100.00
29815;BME280;16708;50.426;7.664;2023-10-13T04:47:35;983.74;;;17.02;100.00
29815;BME280;16708;50.426;7.664;2023-10-13T04:52:28;983.68;;;17.06;100.00
29815;BME280;16708;50.426;7.664;2023-10-13T04:57:22;983.45;;;17.05;100.00
29815;BME280;16708;50.426;7.664;2023-10-13T05:02:17;983.45;;;17.03;100.00
29815;BME280;16708;50.426;7.664;2023-10-13T05:07:11;983.54;;;17.01;100.00
29815;BME280;16708;50.426;7.664;2023-10-13T05:12:06;983.38;;;17.04;100.00
29815;BME280;16708;50.426;7.664;2023-10-13T05:17:00;983.49;;;17.03;100.00
29815;BME280;16708;50.426;7.664;2023-10-13T05:21:55;983.49;;;17.12;100.00
29815;BME280;16708;50.426;7.664;2023-10-13T05:26:49;983.40;;;17.17;100.00
29815;BME280;16708;50.426;7.664;2023-10-13T05:31:45;983.39;;;17.29;100.00
29815;BME280;16708;50.426;7.664;2023-10-13T05:36:38;983.52;;;17.32;100.00
29815;BME280;16708;50.426;7.664;2023-10-13T05:41:33;983.54;;;17.31;100.00
29815;BME280;16708;50.426;7.664;2023-10-13T05:46:28;983.48;;;17.32;100.00
29815;BME280;16708;50.426;7.664;2023-10-13T05:51:22;983.48;;;17.36;100.00
29815;BME280;16708;50.426;7.664;2023-10-13T05:56:17;983.40;;;17.41;100.00
29815;BME280;16708;50.426;7.664;2023-10-13T06:01:11;983.52;;;17.41;100.00
29815;BME280;16708;50.426;7.664;2023-10-13T06:06:06;983.40;;;17.42;100.00
29815;BME280;16708;50.426;7.664;2023-10-13T06:11:00;983.45;;;17.48;100.00
29815;BME280;16708;50.426;7.664;2023-10-13T06:15:55;983.52;;;17.49;100.00
29815;BME280;16708;50.426;7.664;2023-10-13T06:20:49;983.50;;;17.56;100.00
29815;BME280;16708;50.426;7.664;2023-10-13T06:25:44;983.42;;;17.48;100.00
29815;BME280;16708;50.426;7.664;2023-10-13T06:30:39;983.32;;;17.45;100.00
29815;BME280;16708;50.426;7.664;2023-10-13T06:35:33;983.35;;;17.47;100.00
29815;BME280;16708;50.426;7.664;2023-10-13T06:40:27;983.39;;;17.51;100.00
29815;BME280;16708;50.426;7.664;2023-10-13T06:45:21;983.26;;;17.50;100.00
29815;BME280;16708;50.426;7.664;2023-10-13T06:50:16;983.41;;;17.59;100.00
29815;BME280;16708;50.426;7.664;2023-10-13T06:55:11;983.44;;;17.75;100.00
29815;BME280;16708;50.426;7.664;2023-10-13T07:00:05;983.44;;;17.80;100.00
29815;BME280;16708;50.426;7.664;2023-10-13T07:05:00;983.52;;;17.85;100.00
29815;BME280;16708;50.426;7.664;2023-10-13T07:09:55;983.49;;;17.94;100.00
29815;BME280;16708;50.426;7.664;2023-10-13T07:14:49;983.41;;;17.88;100.00
29815;BME280;16708;50.426;7.664;2023-10-13T07:19:43;983.26;;;17.92;100.00
29815;BME280;16708;50.426;7.664;2023-10-13T07:24:37;983.25;;;17.97;100.00
29815;BME280;16708;50.426;7.664;2023-10-13T07:29:30;983.24;;;18.07;100.00
29815;BME280;16708;50.426;7.664;2023-10-13T07:34:25;983.27;;;18.31;100.00
29815;BME280;16708;50.426;7.664;2023-10-13T07:39:19;983.26;;;18.50;100.00
29815;BME280;16708;50.426;7.664;2023-10-13T07:44:13;983.13;;;18.52;100.00
29815;BME280;16708;50.426;7.664;2023-10-13T07:49:08;983.14;;;18.64;100.00
29815;BME280;16708;50.426;7.664;2023-10-13T07:54:00;983.08;;;18.63;100.00
29815;BME280;16708;50.426;7.664;2023-10-13T07:58:54;983.07;;;18.64;100.00
29815;BME280;16708;50.426;7.664;2023-10-13T08:03:49;983.22;;;18.74;100.00
29815;BME280;16708;50.426;7.664;2023-10-13T08:08:44;983.04;;;18.96;100.00
29815;BME280;16708;50.426;7.664;2023-10-13T08:13:38;983.00;;;19.20;100.00
29815;BME280;16708;50.426;7.664;2023-10-13T08:18:33;982.84;;;19.43;100.00
29815;BME280;16708;50.426;7.664;2023-10-13T08:23:27;982.93;;;20.00;100.00
29815;BME280;16708;50.426;7.664;2023-10-13T08:28:22;982.87;;;20.67;100.00
29815;BME280;16708;50.426;7.664;2023-10-13T08:33:18;982.87;;;21.53;100.00
29815;BME280;16708;50.426;7.664;2023-10-13T08:38:13;982.90;;;21.62;100.00
29815;BME280;16708;50.426;7.664;2023-10-13T08:43:08;982.84;;;21.32;100.00
29815;BME280;16708;50.426;7.664;2023-10-13T08:48:00;982.90;;;20.96;100.00
29815;BME280;16708;50.426;7.664;2023-10-13T08:52:55;982.93;;;21.70;100.00
29815;BME280;16708;50.426;7.664;2023-10-13T08:57:50;982.76;;;24.00;100.00
29815;BME280;16708;50.426;7.664;2023-10-13T09:02:45;982.79;;;23.39;100.00
29815;BME280;16708;50.426;7.664;2023-10-13T09:07:41;982.67;;;25.13;98.30
29815;BME280;16708;50.426;7.664;2023-10-13T09:12:36;982.67;;;25.03;95.22
29815;BME280;16708;50.426;7.664;2023-10-13T09:17:32;982.74;;;25.65;81.05
29815;BME280;16708;50.426;7.664;2023-10-13T09:22:27;982.68;;;26.06;82.73
29815;BME280;16708;50.426;7.664;2023-10-13T09:27:22;982.77;;;26.33;79.13
29815;BME280;16708;50.426;7.664;2023-10-13T09:32:17;982.80;;;26.56;76.97
29815;BME280;16708;50.426;7.664;2023-10-13T09:37:12;982.63;;;25.90;84.90
29815;BME280;16708;50.426;7.664;2023-10-13T09:42:07;982.65;;;26.95;75.79
29815;BME280;16708;50.426;7.664;2023-10-13T09:47:00;982.62;;;25.79;84.46
29815;BME280;16708;50.426;7.664;2023-10-13T09:56:47;982.45;;;22.19;100.00
29815;BME280;16708;50.426;7.664;2023-10-13T10:01:39;982.50;;;21.53;100.00
29815;BME280;16708;50.426;7.664;2023-10-13T10:06:32;982.30;;;21.49;100.00
29815;BME280;16708;50.426;7.664;2023-10-13T10:16:19;982.30;;;21.29;100.00
29815;BME280;16708;50.426;7.664;2023-10-13T10:21:11;982.21;;;22.20;100.00
29815;BME280;16708;50.426;7.664;2023-10-13T10:26:06;982.14;;;21.85;100.00
29815;BME280;16708;50.426;7.664;2023-10-13T10:31:00;982.09;;;21.79;100.00
29815;BME280;16708;50.426;7.664;2023-10-13T10:35:54;982.11;;;22.07;100.00
29815;BME280;16708;50.426;7.664;2023-10-13T10:45:43;982.04;;;22.05;100.00
29815;BME280;16708;50.426;7.664;2023-10-13T10:50:38;981.88;;;22.64;100.00
29815;BME280;16708;50.426;7.664;2023-10-13T10:55:33;981.86;;;23.00;100.00
29815;BME280;16708;50.426;7.664;2023-10-13T11:00:28;981.81;;;22.37;100.00
29815;BME280;16708;50.426;7.664;2023-10-13T11:10:17;981.80;;;25.25;100.00
29815;BME280;16708;50.426;7.664;2023-10-13T11:15:13;981.94;;;23.29;100.00
29815;BME280;16708;50.426;7.664;2023-10-13T11:20:07;981.72;;;22.95;100.00
29815;BME280;16708;50.426;7.664;2023-10-13T11:25:00;981.78;;;22.95;100.00
29815;BME280;16708;50.426;7.664;2023-10-13T11:29:54;981.66;;;22.64;100.00
29815;BME280;16708;50.426;7.664;2023-10-13T11:34:48;981.51;;;22.69;100.00
29815;BME280;16708;50.426;7.664;2023-10-13T11:39:42;981.53;;;22.58;100.00
29815;BME280;16708;50.426;7.664;2023-10-13T11:44:37;981.50;;;22.32;100.00
29815;BME280;16708;50.426;7.664;2023-10-13T11:49:31;981.47;;;22.40;100.00
29815;BME280;16708;50.426;7.664;2023-10-13T11:54:26;981.49;;;22.68;100.00
29815;BME280;16708;50.426;7.664;2023-10-13T11:59:20;981.42;;;22.52;100.00
29815;BME280;16708;50.426;7.664;2023-10-13T12:04:15;981.51;;;22.46;100.00
29815;BME280;16708;50.426;7.664;2023-10-13T12:09:07;981.13;;;22.37;99.84
29815;BME280;16708;50.426;7.664;2023-10-13T12:14:02;981.25;;;22.33;98.11
29815;BME280;16708;50.426;7.664;2023-10-13T12:18:56;981.18;;;22.39;100.00
29815;BME280;16708;50.426;7.664;2023-10-13T12:23:50;981.17;;;22.26;98.02
29815;BME280;16708;50.426;7.664;2023-10-13T12:28:44;981.17;;;22.44;99.96
29815;BME280;16708;50.426;7.664;2023-10-13T12:33:38;981.10;;;22.65;94.96
29815;BME280;16708;50.426;7.664;2023-10-13T12:38:33;980.97;;;23.15;92.82
29815;BME280;16708;50.426;7.664;2023-10-13T12:43:28;981.01;;;23.38;88.21
29815;BME280;16708;50.426;7.664;2023-10-13T12:48:22;980.99;;;23.28;89.22
29815;BME280;16708;50.426;7.664;2023-10-13T12:53:17;980.87;;;23.21;87.94
29815;BME280;16708;50.426;7.664;2023-10-13T12:58:10;980.88;;;23.40;84.40
29815;BME280;16708;50.426;7.664;2023-10-13T13:03:04;980.85;;;23.83;79.18
29815;BME280;16708;50.426;7.664;2023-10-13T13:07:58;980.72;;;23.42;79.79
29815;BME280;16708;50.426;7.664;2023-10-13T13:12:53;980.67;;;23.49;82.35
29815;BME280;16708;50.426;7.664;2023-10-13T13:17:48;980.56;;;23.91;78.39
29815;BME280;16708;50.426;7.664;2023-10-13T13:22:42;980.61;;;23.83;75.96
29815;BME280;16708;50.426;7.664;2023-10-13T13:27:37;980.63;;;23.92;77.12
29815;BME280;16708;50.426;7.664;2023-10-13T13:32:31;980.45;;;24.65;63.71
29815;BME280;16708;50.426;7.664;2023-10-13T13:37:26;980.52;;;23.54;73.74
29815;BME280;16708;50.426;7.664;2023-10-13T13:42:19;980.47;;;23.23;78.08
29815;BME280;16708;50.426;7.664;2023-10-13T13:47:12;980.44;;;23.00;82.07
29815;BME280;16708;50.426;7.664;2023-10-13T13:52:06;980.41;;;22.79;84.78
29815;BME280;16708;50.426;7.664;2023-10-13T13:57:00;980.31;;;22.57;84.96
29815;BME280;16708;50.426;7.664;2023-10-13T14:01:54;980.38;;;22.52;82.36
29815;BME280;16708;50.426;7.664;2023-10-13T14:06:49;980.19;;;22.27;86.87
29815;BME280;16708;50.426;7.664;2023-10-13T14:11:43;980.12;;;22.40;85.30
29815;BME280;16708;50.426;7.664;2023-10-13T14:16:37;980.07;;;22.69;84.33
29815;BME280;16708;50.426;7.664;2023-10-13T14:21:32;979.92;;;22.51;83.87
29815;BME280;16708;50.426;7.664;2023-10-13T14:26:26;979.95;;;22.38;88.37
29815;BME280;16708;50.426;7.664;2023-10-13T14:31:20;979.84;;;22.26;91.63
29815;BME280;16708;50.426;7.664;2023-10-13T14:36:15;979.76;;;22.17;94.32
29815;BME280;16708;50.426;7.664;2023-10-13T14:41:07;979.70;;;22.09;91.61
29815;BME280;16708;50.426;7.664;2023-10-13T14:46:02;979.66;;;22.09;93.11
29815;BME280;16708;50.426;7.664;2023-10-13T14:50:56;979.57;;;21.97;99.16
29815;BME280;16708;50.426;7.664;2023-10-13T14:55:50;979.55;;;22.04;94.85
29815;BME280;16708;50.426;7.664;2023-10-13T15:00:45;979.38;;;21.98;95.13
29815;BME280;16708;50.426;7.664;2023-10-13T15:05:39;979.29;;;22.01;97.56
29815;BME280;16708;50.426;7.664;2023-10-13T15:10:34;979.23;;;21.91;96.80
29815;BME280;16708;50.426;7.664;2023-10-13T15:15:27;979.19;;;21.86;98.58
29815;BME280;16708;50.426;7.664;2023-10-13T15:20:22;979.19;;;21.80;100.00
29815;BME280;16708;50.426;7.664;2023-10-13T15:25:16;979.10;;;21.71;100.00
29815;BME280;16708;50.426;7.664;2023-10-13T15:30:11;979.08;;;21.76;98.85
29815;BME280;16708;50.426;7.664;2023-10-13T15:35:05;979.04;;;21.85;99.12
29815;BME280;16708;50.426;7.664;2023-10-13T15:39:59;979.07;;;21.86;99.49
29815;BME280;16708;50.426;7.664;2023-10-13T15:44:53;979.08;;;21.78;100.00
29815;BME280;16708;50.426;7.664;2023-10-13T15:49:48;978.96;;;21.66;100.00
29815;BME280;16708;50.426;7.664;2023-10-13T15:54:42;978.89;;;21.60;100.00
29815;BME280;16708;50.426;7.664;2023-10-13T15:59:35;978.81;;;21.50;100.00
29815;BME280;16708;50.426;7.664;2023-10-13T16:04:30;978.75;;;21.41;100.00
29815;BME280;16708;50.426;7.664;2023-10-13T16:09:26;978.82;;;21.26;100.00
29815;BME280;16708;50.426;7.664;2023-10-13T16:14:19;978.66;;;21.34;100.00
29815;BME280;16708;50.426;7.664;2023-10-13T16:19:11;978.57;;;21.22;100.00
29815;BME280;16708;50.426;7.664;2023-10-13T16:24:06;978.59;;;21.23;100.00
29815;BME280;16708;50.426;7.664;2023-10-13T16:29:00;978.52;;;21.31;100.00
29815;BME280;16708;50.426;7.664;2023-10-13T16:33:54;978.39;;;21.40;100.00
29815;BME280;16708;50.426;7.664;2023-10-13T16:38:48;978.42;;;21.31;100.00
29815;BME280;16708;50.426;7.664;2023-10-13T16:43:42;978.31;;;21.21;100.00
29815;BME280;16708;50.426;7.664;2023-10-13T16:48:37;978.32;;;21.20;100.00
29815;BME280;16708;50.426;7.664;2023-10-13T16:53:31;978.30;;;21.15;100.00
29815;BME280;16708;50.426;7.664;2023-10-13T16:58:26;978.33;;;21.29;100.00
29815;BME280;16708;50.426;7.664;2023-10-13T17:03:20;978.21;;;21.26;100.00
29815;BME280;16708;50.426;7.664;2023-10-13T17:08:15;978.18;;;21.18;100.00
29815;BME280;16708;50.426;7.664;2023-10-13T17:13:09;978.17;;;21.07;100.00
29815;BME280;16708;50.426;7.664;2023-10-13T17:18:04;978.24;;;21.00;100.00
29815;BME280;16708;50.426;7.664;2023-10-13T17:22:58;978.12;;;20.96;100.00
29815;BME280;16708;50.426;7.664;2023-10-13T17:27:52;978.03;;;20.97;100.00
29815;BME280;16708;50.426;7.664;2023-10-13T17:32:46;978.02;;;20.98;100.00
29815;BME280;16708;50.426;7.664;2023-10-13T17:37:40;978.09;;;21.17;100.00
29815;BME280;16708;50.426;7.664;2023-10-13T17:42:35;977.95;;;21.07;100.00
29815;BME280;16708;50.426;7.664;2023-10-13T17:47:29;977.92;;;21.06;100.00
29815;BME280;16708;50.426;7.664;2023-10-13T17:52:24;977.97;;;21.26;100.00
29815;BME280;16708;50.426;7.664;2023-10-13T17:57:18;977.91;;;21.37;100.00
29815;BME280;16708;50.426;7.664;2023-10-13T18:02:12;977.77;;;21.30;100.00
29815;BME280;16708;50.426;7.664;2023-10-13T18:07:09;977.69;;;21.41;100.00
29815;BME280;16708;50.426;7.664;2023-10-13T18:12:01;977.65;;;21.47;100.00
29815;BME280;16708;50.426;7.664;2023-10-13T18:16:54;977.56;;;21.48;100.00
29815;BME280;16708;50.426;7.664;2023-10-13T18:21:48;977.49;;;21.46;96.26
29815;BME280;16708;50.426;7.664;2023-10-13T18:26:43;977.55;;;21.70;94.77
29815;BME280;16708;50.426;7.664;2023-10-13T18:31:35;977.43;;;21.44;98.05
29815;BME280;16708;50.426;7.664;2023-10-13T18:36:29;977.33;;;21.52;94.50
29815;BME280;16708;50.426;7.664;2023-10-13T18:41:23;977.23;;;21.52;92.81
29815;BME280;16708;50.426;7.664;2023-10-13T18:46:18;977.18;;;21.39;93.30
29815;BME280;16708;50.426;7.664;2023-10-13T18:51:11;977.19;;;21.40;93.96
29815;BME280;16708;50.426;7.664;2023-10-13T18:56:05;977.10;;;21.45;96.34
29815;BME280;16708;50.426;7.664;2023-10-13T19:00:57;977.05;;;21.53;90.32
29815;BME280;16708;50.426;7.664;2023-10-13T19:05:52;977.05;;;21.64;89.65
29815;BME280;16708;50.426;7.664;2023-10-13T19:10:46;977.14;;;21.71;86.84
29815;BME280;16708;50.426;7.664;2023-10-13T19:15:41;977.16;;;21.48;93.83
29815;BME280;16708;50.426;7.664;2023-10-13T19:20:35;977.27;;;21.48;91.44
29815;BME280;16708;50.426;7.664;2023-10-13T19:25:29;977.37;;;21.45;90.72
29815;BME280;16708;50.426;7.664;2023-10-13T19:30:23;977.35;;;21.47;91.06
29815;BME280;16708;50.426;7.664;2023-10-13T19:35:20;977.32;;;21.45;90.35
29815;BME280;16708;50.426;7.664;2023-10-13T19:40:12;977.31;;;21.36;92.29
29815;BME280;16708;50.426;7.664;2023-10-13T19:45:06;977.27;;;21.30;94.80
29815;BME280;16708;50.426;7.664;2023-10-13T19:50:01;977.34;;;21.10;97.53
29815;BME280;16708;50.426;7.664;2023-10-13T19:54:56;977.28;;;20.85;100.00
29815;BME280;16708;50.426;7.664;2023-10-13T19:59:50;977.24;;;20.61;100.00
29815;BME280;16708;50.426;7.664;2023-10-13T20:04:44;977.45;;;20.47;100.00
29815;BME280;16708;50.426;7.664;2023-10-13T20:09:39;977.32;;;20.35;100.00
29815;BME280;16708;50.426;7.664;2023-10-13T20:14:33;977.32;;;20.40;100.00
29815;BME280;16708;50.426;7.664;2023-10-13T20:19:27;977.32;;;20.42;100.00
29815;BME280;16708;50.426;7.664;2023-10-13T20:24:22;977.42;;;20.48;100.00
29815;BME280;16708;50.426;7.664;2023-10-13T20:29:16;977.35;;;20.55;100.00
29815;BME280;16708;50.426;7.664;2023-10-13T20:34:10;977.30;;;20.45;100.00
29815;BME280;16708;50.426;7.664;2023-10-13T20:39:04;977.44;;;20.48;100.00
29815;BME280;16708;50.426;7.664;2023-10-13T20:43:59;977.29;;;20.69;100.00
29815;BME280;16708;50.426;7.664;2023-10-13T20:48:53;977.25;;;20.65;100.00
29815;BME280;16708;50.426;7.664;2023-10-13T20:53:47;977.31;;;20.70;100.00
29815;BME280;16708;50.426;7.664;2023-10-13T20:58:40;977.29;;;20.56;100.00
29815;BME280;16708;50.426;7.664;2023-10-13T21:03:34;977.26;;;20.53;100.00
29815;BME280;16708;50.426;7.664;2023-10-13T21:08:27;977.19;;;20.60;100.00
29815;BME280;16708;50.426;7.664;2023-10-13T21:13:22;977.15;;;20.66;100.00
29815;BME280;16708;50.426;7.664;2023-10-13T21:18:16;977.25;;;20.70;100.00
29815;BME280;16708;50.426;7.664;2023-10-13T21:23:11;977.27;;;20.76;100.00
29815;BME280;16708;50.426;7.664;2023-10-13T21:28:05;977.28;;;20.83;100.00
29815;BME280;16708;50.426;7.664;2023-10-13T21:33:00;977.48;;;20.89;100.00
29815;BME280;16708;50.426;7.664;2023-10-13T21:37:54;977.50;;;20.78;100.00
29815;BME280;16708;50.426;7.664;2023-10-13T21:42:48;977.30;;;20.68;100.00
29815;BME280;16708;50.426;7.664;2023-10-13T21:47:43;977.29;;;20.35;100.00
29815;BME280;16708;50.426;7.664;2023-10-13T21:52:37;977.64;;;20.19;100.00
29815;BME280;16708;50.426;7.664;2023-10-13T21:57:30;977.18;;;20.28;100.00
29815;BME280;16708;50.426;7.664;2023-10-13T22:02:25;977.02;;;20.20;100.00
29815;BME280;16708;50.426;7.664;2023-10-13T22:07:19;977.02;;;20.05;100.00
29815;BME280;16708;50.426;7.664;2023-10-13T22:12:13;976.95;;;19.98;100.00
29815;BME280;16708;50.426;7.664;2023-10-13T22:17:07;976.98;;;19.99;100.00
29815;BME280;16708;50.426;7.664;2023-10-13T22:22:01;976.86;;;19.92;100.00
29815;BME280;16708;50.426;7.664;2023-10-13T22:26:56;976.83;;;19.76;100.00
29815;BME280;16708;50.426;7.664;2023-10-13T22:31:48;976.68;;;19.69;100.00
29815;BME280;16708;50.426;7.664;2023-10-13T22:36:42;976.79;;;19.62;100.00
29815;BME280;16708;50.426;7.664;2023-10-13T22:41:36;976.93;;;19.41;100.00
29815;BME280;16708;50.426;7.664;2023-10-13T22:46:30;976.32;;;19.16;100.00
29815;BME280;16708;50.426;7.664;2023-10-13T22:51:24;976.22;;;19.23;100.00
29815;BME280;16708;50.426;7.664;2023-10-13T22:56:18;976.38;;;19.17;100.00
29815;BME280;16708;50.426;7.664;2023-10-13T23:01:16;976.50;;;19.30;100.00
29815;BME280;16708;50.426;7.664;2023-10-13T23:06:06;976.37;;;19.59;100.00
29815;BME280;16708;50.426;7.664;2023-10-13T23:10:59;976.54;;;19.56;100.00
29815;BME280;16708;50.426;7.664;2023-10-13T23:15:54;976.38;;;19.56;100.00
29815;BME280;16708;50.426;7.664;2023-10-13T23:20:49;976.36;;;19.51;100.00
29815;BME280;16708;50.426;7.664;2023-10-13T23:25:43;976.43;;;19.43;100.00
29815;BME280;16708;50.426;7.664;2023-10-13T23:30:38;976.25;;;19.52;100.00
29815;BME280;16708;50.426;7.664;2023-10-13T23:35:32;976.42;;;19.84;100.00
29815;BME280;16708;50.426;7.664;2023-10-13T23:40:26;976.21;;;19.96;100.00
29815;BME280;16708;50.426;7.664;2023-10-13T23:45:21;976.17;;;20.09;100.00
29815;BME280;16708;50.426;7.664;2023-10-13T23:50:15;976.13;;;19.84;100.00
29815;BME280;16708;50.426;7.664;2023-10-13T23:55:09;976.04;;;20.03;100.00
